Time;durP1;ratioP1;P1;durP2;ratioP2;P2;SDS_P1;SDS_P2;PMS_P1;PMS_P2;Temp;Humidity;BMP_temperature;BMP_pressure;BME280_temperature;BME280_humidity;BME280_pressure;Samples;Min_cycle;Max_cycle;Signal;HPM_P1;HPM_P2
2022/05/04 00:02:01;;;;;;;65.30;50.90;;;;;;;10.02;82.28;98911.86;105153;1270;60455;-72
2022/05/04 00:04:28;;;;;;;70.90;52.10;;;;;;;9.97;82.48;98913.93;105172;1270;60586;-72
2022/05/04 00:06:54;;;;;;;66.90;51.70;;;;;;;9.96;82.60;98911.73;105158;1270;60573;-72
2022/05/04 00:09:20;;;;;;;71.10;53.70;;;;;;;9.94;82.96;98914.13;105125;1270;60487;-72
2022/05/04 00:11:47;;;;;;;74.10;53.00;;;;;;;9.92;83.39;98914.30;105102;1271;60532;-71
2022/05/04 00:14:13;;;;;;;71.00;51.90;;;;;;;9.91;83.53;98912.92;105159;1270;60679;-73
2022/05/04 00:16:40;;;;;;;67.00;51.00;;;;;;;9.92;83.70;98913.95;105163;1270;60593;-71
2022/05/04 00:19:07;;;;;;;68.10;49.30;;;;;;;9.91;83.89;98917.75;105150;1270;60447;-73
2022/05/04 00:21:33;;;;;;;62.60;49.50;;;;;;;9.88;84.05;98915.58;105164;1270;60473;-73
2022/05/04 00:24:00;;;;;;;69.70;51.10;;;;;;;9.84;84.33;98920.27;105138;1270;60472;-73
2022/05/04 00:26:26;;;;;;;64.60;50.10;;;;;;;9.85;84.51;98924.70;105167;1270;60458;-72
2022/05/04 00:28:53;;;;;;;70.70;52.90;;;;;;;9.85;84.65;98924.82;105140;1270;60460;-72
2022/05/04 00:31:19;;;;;;;65.20;53.90;;;;;;;9.86;84.92;98924.92;105172;1270;60460;-72
2022/05/04 00:33:46;;;;;;;64.90;55.10;;;;;;;9.86;85.08;98922.65;105157;1270;60506;-73
2022/05/04 00:36:12;;;;;;;60.80;51.30;;;;;;;9.85;84.98;98928.39;105148;1270;60514;-72
2022/05/04 00:38:39;;;;;;;56.30;48.00;;;;;;;9.82;85.05;98924.54;105192;1270;60424;-72
2022/05/04 00:41:05;;;;;;;53.20;46.80;;;;;;;9.81;85.30;98928.52;105155;1270;60569;-71
2022/05/04 00:43:32;;;;;;;58.80;49.90;;;;;;;9.80;85.72;98925.56;105154;1270;60592;-73
2022/05/04 00:45:59;;;;;;;60.40;50.20;;;;;;;9.81;86.09;98927.23;105105;1270;60517;-73
2022/05/04 00:48:25;;;;;;;69.20;56.00;;;;;;;9.84;86.34;98932.73;105127;1270;60574;-71
2022/05/04 00:50:54;;;;;;;63.60;51.80;;;;;;;9.89;86.64;98932.55;105138;1270;60996;-71
2022/05/04 00:53:21;;;;;;;59.20;49.30;;;;;;;9.94;86.74;98934.76;105202;1270;74058;-72
2022/05/04 00:55:49;;;;;;;63.30;53.10;;;;;;;9.98;86.94;98938.25;105181;1270;69174;-72
2022/05/04 01:01:02;;;;;;;64.20;51.30;;;;;;;10.07;87.24;98942.42;105136;1270;60511;-72
2022/05/04 01:03:29;;;;;;;59.60;50.00;;;;;;;10.12;87.37;98943.12;105186;1270;61865;-71
2022/05/04 01:05:56;;;;;;;61.90;50.30;;;;;;;10.15;87.53;98942.04;105026;1271;74190;-72
2022/05/04 01:08:23;;;;;;;64.00;55.30;;;;;;;10.17;87.43;98947.61;105176;1270;69350;-72
2022/05/04 01:10:49;;;;;;;69.70;56.50;;;;;;;10.17;87.61;98946.95;105164;1270;74279;-73
2022/05/04 01:13:21;;;;;;;67.10;56.60;;;;;;;10.16;88.01;98944.64;105132;1270;60482;-72
2022/05/04 01:15:48;;;;;;;70.90;59.70;;;;;;;10.15;88.11;98946.13;105133;1270;61760;-73
2022/05/04 01:18:16;;;;;;;69.00;61.30;;;;;;;10.19;88.14;98944.80;105148;1270;73778;-73
2022/05/04 01:20:43;;;;;;;62.20;54.00;;;;;;;10.24;88.19;98944.30;105364;1270;69448;-70
2022/05/04 01:23:10;;;;;;;61.10;53.30;;;;;;;10.27;88.41;98944.29;105204;1270;73372;-71
2022/05/04 01:25:36;;;;;;;65.70;53.30;;;;;;;10.27;88.26;98942.89;105144;1270;60514;-72
2022/05/04 01:28:04;;;;;;;65.70;55.30;;;;;;;10.25;88.50;98945.45;105070;1270;60478;-72
2022/05/04 01:30:32;;;;;;;62.40;53.40;;;;;;;10.25;88.79;98946.92;105142;1270;75282;-73
2022/05/04 01:32:59;;;;;;;62.70;55.00;;;;;;;10.24;88.93;98948.38;105145;1270;70012;-72
2022/05/04 01:35:26;;;;;;;65.30;54.30;;;;;;;10.23;88.99;98952.88;104862;1270;74120;-72
2022/05/04 01:37:53;;;;;;;68.10;57.40;;;;;;;10.23;89.17;98949.52;105151;1270;60508;-72
2022/05/04 01:40:19;;;;;;;70.90;60.30;;;;;;;10.22;89.49;98949.07;105184;1270;61475;-72
2022/05/04 01:42:46;;;;;;;66.20;56.40;;;;;;;10.22;89.74;98951.34;105164;1270;74343;-73
2022/05/04 01:45:13;;;;;;;64.90;56.80;;;;;;;10.24;89.91;98951.42;105189;1270;60479;-73
2022/05/04 01:47:40;;;;;;;67.00;58.00;;;;;;;10.26;89.95;98951.14;104911;1270;73708;-72
2022/05/04 01:50:07;;;;;;;63.00;54.90;;;;;;;10.26;89.90;98955.34;105142;1270;61380;-72
2022/05/04 01:52:33;;;;;;;60.60;54.10;;;;;;;10.26;90.04;98952.50;104945;1271;60499;-72
2022/05/04 01:55:01;;;;;;;61.10;54.40;;;;;;;10.25;90.01;98953.09;105150;1270;74336;-72
2022/05/04 01:57:27;;;;;;;59.00;52.50;;;;;;;10.23;90.05;98954.51;105173;1270;69675;-72
2022/05/04 01:59:54;;;;;;;60.80;54.30;;;;;;;10.18;90.15;98953.25;105166;1269;72229;-72
2022/05/04 02:02:21;;;;;;;66.50;57.20;;;;;;;10.14;90.45;98953.01;105135;1270;60378;-72
2022/05/04 02:04:49;;;;;;;62.70;53.60;;;;;;;10.10;90.81;98955.67;105133;1270;61814;-72
2022/05/04 02:07:16;;;;;;;60.90;54.50;;;;;;;10.09;90.95;98954.85;105149;1270;74462;-70
2022/05/04 02:09:43;;;;;;;60.70;53.90;;;;;;;10.10;91.04;98952.99;105150;1270;70862;-72
2022/05/04 02:12:11;;;;;;;70.60;59.40;;;;;;;10.11;91.54;98952.27;105181;1270;73438;-72
2022/05/04 02:14:38;;;;;;;69.70;57.40;;;;;;;10.09;91.77;98953.65;105258;1270;60511;-70
2022/05/04 02:17:05;;;;;;;71.90;57.50;;;;;;;10.06;91.74;98954.70;105124;1270;60359;-72
2022/05/04 02:19:32;;;;;;;67.80;56.70;;;;;;;10.05;91.87;98959.02;105143;1270;73586;-71
2022/05/04 02:21:59;;;;;;;66.20;55.10;;;;;;;10.05;91.84;98960.83;104974;1271;68523;-72
2022/05/04 02:24:25;;;;;;;67.00;55.90;;;;;;;10.04;91.95;98964.05;105155;1270;73357;-73
2022/05/04 02:26:52;;;;;;;67.40;56.20;;;;;;;10.03;92.14;98960.27;105143;1270;60469;-73
2022/05/04 02:29:18;;;;;;;69.60;54.90;;;;;;;10.02;92.38;98958.54;104956;1271;60392;-72
2022/05/04 02:31:45;;;;;;;69.90;54.60;;;;;;;10.01;92.48;98956.79;105149;1270;60517;-72
2022/05/04 02:34:11;;;;;;;67.50;55.30;;;;;;;10.01;92.46;98953.98;104888;1270;60696;-72
2022/05/04 02:39:23;;;;;;;62.60;54.90;;;;;;;9.98;92.86;98953.10;105136;1270;60345;-72
2022/05/04 02:41:52;;;;;;;62.10;54.10;;;;;;;9.96;92.83;98950.23;105181;1270;60554;-73
2022/05/04 02:44:18;;;;;;;61.30;52.60;;;;;;;9.93;93.00;98950.21;105170;1270;75578;-72
2022/05/04 02:46:48;;;;;;;57.90;51.40;;;;;;;9.89;93.01;98952.80;105161;1270;69521;-74
2022/05/04 02:49:16;;;;;;;60.60;54.10;;;;;;;9.83;93.21;98954.98;105202;1270;74823;-73
2022/05/04 02:51:42;;;;;;;60.10;53.70;;;;;;;9.78;93.33;98955.61;105206;1270;60479;-72
2022/05/04 02:54:09;;;;;;;59.00;52.60;;;;;;;9.75;93.50;98957.08;105184;1270;61728;-73
2022/05/04 02:56:36;;;;;;;56.00;50.00;;;;;;;9.72;93.64;98960.82;105152;1270;74487;-72
2022/05/04 02:59:03;;;;;;;57.20;51.00;;;;;;;9.68;93.80;98962.48;105168;1270;69457;-72
2022/05/04 03:04:14;;;;;;;61.70;54.80;;;;;;;9.65;94.23;98968.53;105156;1270;60511;-74
2022/05/04 03:06:42;;;;;;;61.80;54.70;;;;;;;9.66;94.53;98969.72;105158;1270;60469;-74
2022/05/04 03:09:10;;;;;;;61.80;55.20;;;;;;;9.68;94.75;98974.72;104913;1271;74743;-73
2022/05/04 03:11:56;;;;;;;60.30;54.00;;;;;;;9.68;94.91;98976.34;105112;1270;69343;-72
2022/05/04 03:14:28;;;;;;;70.40;58.50;;;;;;;9.69;95.71;98979.48;105135;1270;72575;-72
2022/05/04 03:16:56;;;;;;;71.90;59.50;;;;;;;9.71;96.72;98983.08;105157;1270;61238;-73
2022/05/04 03:19:23;;;;;;;64.40;57.10;;;;;;;9.72;97.39;98984.44;105137;1270;61885;-72
2022/05/04 03:21:51;;;;;;;62.50;55.70;;;;;;;9.71;97.49;98984.81;105143;1271;74032;-71
2022/05/04 03:24:18;;;;;;;59.90;53.80;;;;;;;9.72;97.47;98993.88;105212;1270;70389;-72
2022/05/04 03:26:45;;;;;;;58.00;52.20;;;;;;;9.74;97.96;98992.29;105111;1270;73172;-73
2022/05/04 03:29:12;;;;;;;57.00;51.00;;;;;;;9.76;98.18;98992.30;105147;1270;60450;-71
2022/05/04 03:31:39;;;;;;;56.70;50.80;;;;;;;9.78;98.41;98995.20;105200;1269;61059;-72
2022/05/04 03:34:06;;;;;;;54.10;48.90;;;;;;;9.80;98.48;98997.02;105199;1270;74388;-72
2022/05/04 03:36:35;;;;;;;56.20;50.20;;;;;;;9.84;98.49;98997.84;105180;1270;69389;-72
2022/05/04 03:39:03;;;;;;;53.70;48.10;;;;;;;9.89;98.39;98999.83;105139;1271;73253;-72
2022/05/04 03:41:31;;;;;;;55.10;49.50;;;;;;;9.94;98.40;99001.31;104967;1271;60507;-72
2022/05/04 03:43:58;;;;;;;54.20;48.40;;;;;;;9.97;98.53;98999.30;105140;1270;60359;-73
2022/05/04 03:46:27;;;;;;;54.10;48.60;;;;;;;10.05;98.42;99000.94;105132;1270;73749;-73
2022/05/04 03:48:55;;;;;;;51.80;46.40;;;;;;;10.13;98.34;99001.85;105159;1271;69430;-72
2022/05/04 03:51:23;;;;;;;51.70;46.40;;;;;;;10.21;98.24;98998.33;105262;1270;72567;-72
2022/05/04 03:53:51;;;;;;;51.90;46.60;;;;;;;10.29;98.07;99000.46;105158;1270;60500;-72
2022/05/04 03:56:19;;;;;;;52.50;47.10;;;;;;;10.37;97.96;99003.86;105156;1270;60813;-73
2022/05/04 03:58:46;;;;;;;50.40;45.30;;;;;;;10.45;97.80;99008.81;105170;1270;74420;-72
2022/05/04 04:01:13;;;;;;;50.70;45.60;;;;;;;10.54;97.77;99011.62;104873;1270;70090;-71
2022/05/04 04:03:40;;;;;;;51.50;46.40;;;;;;;10.64;97.59;99013.62;105195;1271;73828;-71
2022/05/04 04:06:06;;;;;;;48.40;43.30;;;;;;;10.76;97.46;99016.70;105169;1270;60478;-72
2022/05/04 04:08:33;;;;;;;51.60;46.60;;;;;;;10.93;97.16;99014.13;105189;1270;60609;-73
2022/05/04 04:11:00;;;;;;;50.00;45.20;;;;;;;11.38;96.86;99017.27;105160;1270;74416;-73
2022/05/04 04:13:26;;;;;;;45.30;40.70;;;;;;;12.11;95.66;99011.70;105174;1270;69373;-72
2022/05/04 04:15:54;;;;;;;45.50;41.30;;;;;;;12.68;93.85;99014.13;105165;1270;74352;-71
2022/05/04 04:18:22;;;;;;;44.50;40.00;;;;;;;13.09;92.34;99010.83;104948;1271;60508;-71
2022/05/04 04:23:35;;;;;;;43.40;39.20;;;;;;;14.29;89.02;99010.77;105128;1270;72671;-72
2022/05/04 04:26:04;;;;;;;41.60;37.80;;;;;;;14.75;87.35;99011.30;105197;1270;69338;-72
2022/05/04 04:28:31;;;;;;;40.60;36.90;;;;;;;15.06;85.93;99009.90;105187;1270;71838;-72
2022/05/04 04:30:58;;;;;;;40.10;36.40;;;;;;;14.99;85.01;99014.47;105165;1270;60586;-73
2022/05/04 04:33:29;;;;;;;42.10;37.80;;;;;;;14.70;85.04;99015.09;104939;1271;60380;-73
2022/05/04 04:35:59;;;;;;;41.20;37.20;;;;;;;14.46;85.06;99016.04;105069;1270;75284;-72
2022/05/04 04:38:27;;;;;;;42.10;37.90;;;;;;;14.25;85.36;99022.50;104999;1270;67450;-72
2022/05/04 04:40:54;;;;;;;42.40;38.00;;;;;;;14.06;85.35;99021.55;104950;1271;73217;-73
2022/05/04 04:43:20;;;;;;;42.80;38.90;;;;;;;14.05;85.47;99022.88;105153;1270;61700;-74
2022/05/04 04:45:48;;;;;;;39.80;36.00;;;;;;;14.34;84.66;99022.31;105171;1270;60356;-73
2022/05/04 04:48:16;;;;;;;37.40;34.00;;;;;;;14.29;84.36;99023.47;104914;1271;74120;-73
2022/05/04 04:50:44;;;;;;;37.50;34.00;;;;;;;14.12;84.59;99021.42;105241;1271;68800;-72
2022/05/04 04:53:11;;;;;;;35.70;32.40;;;;;;;13.98;84.46;99019.67;105205;1270;74219;-73
2022/05/04 04:55:46;;;;;;;34.90;31.60;;;;;;;13.90;84.54;99023.39;105155;1270;60468;-72
2022/05/04 04:58:14;;;;;;;33.90;30.60;;;;;;;13.85;84.72;99024.51;105163;1270;60491;-73
2022/05/04 05:00:41;;;;;;;34.20;30.80;;;;;;;13.83;84.66;99023.02;105236;1270;74679;-72
2022/05/04 05:03:08;;;;;;;31.30;28.30;;;;;;;13.82;84.28;99025.98;105410;1271;70203;-81
2022/05/04 05:05:35;;;;;;;30.90;28.20;;;;;;;13.87;84.27;99032.25;105665;1270;72566;-78
2022/05/04 05:08:01;;;;;;;30.90;28.10;;;;;;;13.90;84.04;99030.92;105022;1272;60468;-78
2022/05/04 05:10:28;;;;;;;31.90;28.80;;;;;;;13.95;83.97;99035.45;105253;1270;60970;-75
2022/05/04 05:12:54;;;;;;;27.70;25.10;;;;;;;14.28;83.18;99028.75;105274;1270;73065;-78
2022/05/04 05:18:07;;;;;;;24.50;22.30;;;;;;;14.58;81.01;99029.68;105376;1270;72085;-81
2022/05/04 05:20:34;;;;;;;25.30;22.90;;;;;;;14.65;80.52;99027.88;105297;1271;61156;-78
2022/05/04 05:23:02;;;;;;;24.00;21.80;;;;;;;14.74;80.09;99025.55;105278;1270;60683;-80
2022/05/04 05:25:30;;;;;;;23.00;21.10;;;;;;;14.86;79.32;99026.41;105254;1270;73382;-77
2022/05/04 05:27:57;;;;;;;23.70;21.30;;;;;;;14.98;78.02;99028.27;105284;1270;70395;-77
2022/05/04 05:30:23;;;;;;;22.00;20.10;;;;;;;15.16;77.03;99035.18;105286;1270;71571;-78
2022/05/04 05:32:50;;;;;;;22.10;20.00;;;;;;;15.72;75.33;99035.96;105296;1270;60505;-76
2022/05/04 05:35:17;;;;;;;20.10;18.20;;;;;;;16.04;73.66;99035.44;105314;1270;60479;-83
2022/05/04 05:37:43;;;;;;;21.60;19.60;;;;;;;16.19;73.10;99033.61;105400;1271;74553;-82
2022/05/04 05:40:11;;;;;;;21.50;19.60;;;;;;;16.77;71.88;99035.64;105677;1270;60573;-83
2022/05/04 05:42:37;;;;;;;19.90;18.10;;;;;;;17.13;70.51;99036.63;105154;1271;72975;-80
2022/05/04 05:45:07;;;;;;;19.70;18.00;;;;;;;17.22;70.01;99033.49;105252;1270;60900;-81
2022/05/04 05:47:34;;;;;;;19.10;17.30;;;;;;;17.17;69.14;99035.20;105310;1274;60794;-71
2022/05/04 05:50:01;;;;;;;18.90;17.20;;;;;;;17.00;68.45;99038.20;104637;1271;603237;-71
2022/05/04 05:52:27;;;;;;;18.30;16.60;;;;;;;16.79;68.22;99039.40;104911;1271;60671;-72
2022/05/04 05:54:54;;;;;;;18.40;16.50;;;;;;;16.69;67.84;99037.99;105068;1271;74308;-71
2022/05/04 05:57:22;;;;;;;17.40;15.80;;;;;;;16.64;67.24;99038.78;105112;1271;60581;-71
2022/05/04 05:59:49;;;;;;;18.10;16.50;;;;;;;16.78;66.77;99034.67;105096;1271;60850;-72
2022/05/04 06:02:15;;;;;;;17.40;15.90;;;;;;;17.22;65.61;99035.08;105088;1271;73434;-71
2022/05/04 06:04:42;;;;;;;17.40;16.00;;;;;;;17.50;65.11;99033.70;105087;1271;68716;-72
2022/05/04 06:07:08;;;;;;;17.20;15.70;;;;;;;17.73;64.70;99030.39;105067;1271;60431;-71
2022/05/04 06:09:35;;;;;;;17.00;15.50;;;;;;;17.95;64.94;99031.77;105108;1271;60490;-71
2022/05/04 06:12:02;;;;;;;17.60;16.10;;;;;;;18.09;64.06;99037.27;105097;1271;60463;-72
2022/05/04 06:14:28;;;;;;;17.10;15.50;;;;;;;18.27;63.89;99038.34;105158;1271;75446;-71
2022/05/04 06:16:55;;;;;;;18.40;16.70;;;;;;;18.39;63.16;99044.73;105024;1273;61826;-72
2022/05/04 06:19:21;;;;;;;18.40;16.80;;;;;;;18.42;62.67;99045.82;105079;1271;60479;-72
2022/05/04 06:21:48;;;;;;;17.40;15.90;;;;;;;18.66;62.05;99048.19;105080;1271;60613;-72
2022/05/04 06:24:14;;;;;;;16.60;15.40;;;;;;;18.44;60.91;99046.02;105100;1271;60463;-71
2022/05/04 06:26:41;;;;;;;17.70;16.10;;;;;;;18.14;60.82;99049.16;105094;1271;60459;-71
2022/05/04 06:29:07;;;;;;;18.70;16.80;;;;;;;17.82;60.61;99048.12;105079;1271;60536;-73
2022/05/04 06:34:19;;;;;;;18.20;16.50;;;;;;;17.29;62.04;99048.83;105065;1271;60593;-72
2022/05/04 06:36:46;;;;;;;18.60;17.00;;;;;;;17.52;62.19;99047.67;105098;1271;60612;-72
2022/05/04 06:39:12;;;;;;;17.60;16.10;;;;;;;17.97;61.54;99041.31;105103;1271;72574;-72
2022/05/04 06:41:40;;;;;;;17.80;16.00;;;;;;;18.11;61.19;99039.17;105082;1271;70214;-71
2022/05/04 06:44:08;;;;;;;15.10;13.80;;;;;;;18.29;60.14;99040.67;105125;1271;72464;-72
2022/05/04 06:46:41;;;;;;;16.20;14.60;;;;;;;18.37;59.22;99039.00;105120;1271;60608;-71
2022/05/04 06:49:10;;;;;;;15.80;14.30;;;;;;;18.33;59.22;99035.59;105125;1271;60771;-73
2022/05/04 06:51:37;;;;;;;15.80;14.30;;;;;;;18.45;58.19;99032.81;104970;1272;74023;-73
2022/05/04 06:54:04;;;;;;;16.60;15.00;;;;;;;18.60;58.65;99032.71;105107;1271;68628;-73
2022/05/04 06:56:30;;;;;;;18.00;16.50;;;;;;;18.89;58.90;99031.14;105103;1271;72880;-72
2022/05/04 06:58:57;;;;;;;17.60;15.90;;;;;;;19.15;58.50;99027.74;105111;1271;60465;-72
2022/05/04 07:01:23;;;;;;;18.60;16.80;;;;;;;19.33;57.90;99028.36;104886;1274;60402;-72
2022/05/04 07:03:50;;;;;;;17.00;15.50;;;;;;;19.20;57.48;99034.00;105086;1271;60471;-74
2022/05/04 07:06:17;;;;;;;17.30;15.80;;;;;;;19.01;58.04;99034.48;105107;1271;69626;-76
2022/05/04 07:08:43;;;;;;;16.80;15.20;;;;;;;19.00;58.27;99038.88;105026;1271;71724;-72
2022/05/04 07:11:10;;;;;;;16.80;15.10;;;;;;;19.02;57.96;99040.05;105120;1271;60616;-72
2022/05/04 07:13:36;;;;;;;16.70;15.20;;;;;;;18.94;57.59;99035.90;104902;1273;60555;-72
2022/05/04 07:16:03;;;;;;;16.30;14.70;;;;;;;18.85;57.10;99037.88;105105;1271;75165;-72
2022/05/04 07:18:29;;;;;;;15.80;14.20;;;;;;;18.77;56.86;99037.27;105117;1271;70263;-72
2022/05/04 07:20:56;;;;;;;14.90;13.50;;;;;;;18.77;56.68;99037.91;105116;1271;74504;-73
2022/05/04 07:23:22;;;;;;;15.30;12.90;;;;;;;18.71;55.95;99035.08;105090;1271;60491;-73
2022/05/04 07:25:49;;;;;;;14.10;12.70;;;;;;;18.70;56.61;99037.16;105141;1271;60423;-70
2022/05/04 07:28:15;;;;;;;13.70;12.40;;;;;;;18.64;54.92;99036.89;105106;1271;60399;-72
2022/05/04 07:30:42;;;;;;;15.00;13.40;;;;;;;18.43;55.21;99038.54;105616;1271;60412;-81
2022/05/04 07:33:08;;;;;;;13.70;12.40;;;;;;;18.42;56.06;99034.71;105567;1271;60467;-81
2022/05/04 07:35:35;;;;;;;14.00;12.70;;;;;;;18.50;55.58;99036.67;105532;1270;60463;-82
2022/05/04 07:38:01;;;;;;;12.00;11.00;;;;;;;18.51;55.74;99037.77;105452;1270;60453;-81
2022/05/04 07:43:13;;;;;;;12.20;11.00;;;;;;;18.56;54.74;99043.06;105727;1271;68622;-82
2022/05/04 07:45:40;;;;;;;14.00;12.60;;;;;;;18.58;55.17;99043.52;105601;1271;73741;-78
2022/05/04 07:48:07;;;;;;;11.40;10.30;;;;;;;18.68;55.46;99043.48;105486;1271;60823;-82
2022/05/04 07:50:34;;;;;;;11.30;10.20;;;;;;;18.81;54.50;99044.05;105305;1271;60827;-82
2022/05/04 07:53:01;;;;;;;13.00;11.30;;;;;;;18.91;54.07;99046.27;105455;1271;60492;-79
2022/05/04 07:55:30;;;;;;;13.00;11.80;;;;;;;18.91;53.73;99046.23;105401;1271;69346;-78
2022/05/04 07:57:57;;;;;;;12.10;11.10;;;;;;;18.95;53.78;99051.42;105140;1271;73610;-79
2022/05/04 08:05:56;;;;;;;12.40;11.30;;;;;;;18.97;52.31;99058.04;105355;1271;74545;-84
2022/05/04 08:08:23;;;;;;;12.60;11.30;;;;;;;19.00;52.49;99055.44;105148;1271;69471;-80
2022/05/04 08:10:49;;;;;;;10.30;9.40;;;;;;;19.08;52.33;99057.51;105197;1271;73312;-74
2022/05/04 08:13:19;;;;;;;10.00;9.00;;;;;;;19.04;50.58;99054.16;105110;1271;60618;-75
2022/05/04 08:15:46;;;;;;;9.10;8.30;;;;;;;18.98;50.13;99054.00;105158;1271;60887;-74
2022/05/04 08:18:13;;;;;;;11.90;10.80;;;;;;;18.95;50.50;99057.72;105178;1271;74572;-73
2022/05/04 08:20:41;;;;;;;10.30;9.20;;;;;;;19.04;50.41;99059.66;105228;1271;68755;-72
2022/05/04 08:23:07;;;;;;;11.30;10.10;;;;;;;19.06;49.59;99058.09;105182;1271;73932;-72
2022/05/04 08:25:34;;;;;;;9.70;8.80;;;;;;;19.07;50.04;99058.11;105182;1271;60395;-72
2022/05/04 08:28:00;;;;;;;8.50;7.70;;;;;;;19.11;49.59;99055.77;105183;1269;60260;-72
2022/05/04 08:30:27;;;;;;;9.50;8.60;;;;;;;19.29;50.59;99054.77;105123;1271;60466;-72
2022/05/04 08:32:53;;;;;;;9.60;8.70;;;;;;;19.57;50.94;99050.92;105194;1271;70377;-72
2022/05/04 08:35:20;;;;;;;9.90;9.10;;;;;;;19.75;50.03;99047.92;105142;1271;73326;-72
2022/05/04 08:37:47;;;;;;;10.40;9.30;;;;;;;19.83;49.83;99047.70;105196;1271;60571;-71
2022/05/04 08:40:14;;;;;;;10.00;9.10;;;;;;;19.91;49.64;99049.15;105150;1270;62069;-72
2022/05/04 08:42:45;;;;;;;10.60;8.80;;;;;;;20.06;49.46;99046.86;105180;1271;74601;-72
2022/05/04 08:45:14;;;;;;;8.90;7.60;;;;;;;20.06;47.78;99048.52;105167;1271;69188;-73
2022/05/04 08:47:42;;;;;;;9.50;8.60;;;;;;;19.90;47.33;99051.05;105239;1271;74009;-71
2022/05/04 08:50:15;;;;;;;9.00;8.30;;;;;;;19.95;47.98;99048.94;105207;1271;60361;-74
2022/05/04 08:52:52;;;;;;;9.30;8.50;;;;;;;20.06;47.19;99053.70;105291;1271;62809;-72
2022/05/04 08:55:18;;;;;;;9.50;8.40;;;;;;;19.97;45.77;99053.78;104968;1271;73795;-72
2022/05/04 08:57:46;;;;;;;8.30;7.50;;;;;;;19.88;46.40;99055.98;105179;1271;69883;-72
2022/05/04 09:00:13;;;;;;;10.20;8.40;;;;;;;19.89;45.65;99053.30;105156;1271;73070;-72
2022/05/04 09:02:40;;;;;;;8.90;7.80;;;;;;;19.92;46.04;99058.60;104958;1270;60800;-73
2022/05/04 09:05:16;;;;;;;9.30;7.10;;;;;;;20.05;46.12;99057.77;105164;1271;60711;-72
2022/05/04 09:07:43;;;;;;;7.80;7.10;;;;;;;20.24;45.98;99052.56;105239;1271;75556;-73
2022/05/04 09:10:22;;;;;;;7.40;6.80;;;;;;;20.40;45.57;99052.26;105247;1270;69381;-73
2022/05/04 09:12:50;;;;;;;8.00;6.70;;;;;;;20.60;45.75;99052.19;105050;1271;73439;-73
2022/05/04 09:15:23;;;;;;;8.30;6.50;;;;;;;20.77;44.51;99052.11;105225;1271;60415;-74
2022/05/04 09:18:03;;;;;;;8.20;6.40;;;;;;;20.83;44.14;99051.98;105217;1269;61827;-73
2022/05/04 09:20:51;;;;;;;;;;;;;;;20.90;43.63;99051.59;105164;1271;73671;-72
2022/05/04 09:23:21;;;;;;;7.10;6.50;;;;;;;20.95;43.74;99048.50;105191;1271;69417;-73
2022/05/04 09:25:52;;;;;;;7.30;6.60;;;;;;;20.99;42.82;99049.85;105264;1271;74383;-72
2022/05/04 09:28:20;;;;;;;7.80;7.00;;;;;;;20.95;42.59;99050.16;105175;1271;60389;-71
2022/05/04 09:31:04;;;;;;;7.70;6.50;;;;;;;20.91;42.56;99049.99;105288;1271;61419;-72
2022/05/04 09:33:33;;;;;;;6.80;6.10;;;;;;;21.00;42.20;99053.32;105152;1270;75239;-72
2022/05/04 09:36:05;;;;;;;7.60;6.60;;;;;;;20.97;41.14;99051.69;105283;1271;69484;-72
2022/05/04 09:46:55;;;;;;;6.90;6.10;;;;;;;21.21;39.54;99039.64;105194;1271;75580;-72
2022/05/04 09:49:28;;;;;;;7.00;6.40;;;;;;;21.21;39.80;99042.28;105189;1271;70272;-72
2022/05/04 09:51:54;;;;;;;7.80;6.70;;;;;;;21.25;39.21;99036.59;105256;1271;74319;-72
2022/05/04 09:54:27;;;;;;;7.10;6.40;;;;;;;21.21;38.82;99035.50;105153;1270;61020;-72
2022/05/04 09:57:04;;;;;;;7.50;6.60;;;;;;;21.25;39.25;99032.38;105415;1271;60834;-71
2022/05/04 09:59:33;;;;;;;6.10;5.10;;;;;;;21.42;39.62;99026.06;105214;1271;75636;-72
2022/05/04 10:02:03;;;;;;;6.50;5.80;;;;;;;21.58;39.45;99025.31;105022;1271;68316;-72
2022/05/04 10:04:37;;;;;;;8.10;7.10;;;;;;;21.67;38.84;99026.51;105161;1271;74419;-71
2022/05/04 10:07:04;;;;;;;8.80;7.00;;;;;;;21.72;38.83;99026.58;105155;1271;60574;-72
2022/05/04 10:09:32;;;;;;;7.50;6.70;;;;;;;21.84;38.31;99020.76;105159;1271;60462;-73
2022/05/04 10:11:59;;;;;;;8.20;7.10;;;;;;;21.96;38.56;99021.06;104935;1271;74255;-73
2022/05/04 10:14:28;;;;;;;7.90;6.90;;;;;;;22.06;37.86;99020.58;104952;1271;67360;-70
2022/05/04 10:17:03;;;;;;;7.40;6.70;;;;;;;22.00;36.64;99017.24;105146;1271;73908;-71
2022/05/04 10:19:47;;;;;;;7.80;7.10;;;;;;;21.75;36.89;99015.83;104893;1272;60543;-72
2022/05/04 10:22:18;;;;;;;7.00;6.40;;;;;;;21.53;37.42;99014.87;105074;1271;61114;-74
2022/05/04 10:24:45;;;;;;;6.70;5.90;;;;;;;21.65;38.49;99013.86;105112;1271;74493;-73
2022/05/04 10:27:21;;;;;;;7.30;5.80;;;;;;;22.01;38.82;99010.11;105057;1271;69072;-72
2022/05/04 10:32:44;;;;;;;6.30;5.70;;;;;;;22.34;37.51;99005.65;104942;1271;60537;-72
2022/05/04 10:35:41;;;;;;;6.10;5.50;;;;;;;22.59;38.33;99001.98;105168;1271;60777;-72
2022/05/04 10:38:27;;;;;;;7.10;5.70;;;;;;;23.02;38.19;98999.31;105103;1270;74363;-72
2022/05/04 10:40:56;;;;;;;7.60;6.10;;;;;;;23.27;38.31;98996.89;105116;1270;68535;-71
2022/05/04 10:43:36;;;;;;;7.80;7.00;;;;;;;23.57;38.07;98997.02;105107;1270;73372;-71
2022/05/04 10:46:04;;;;;;;6.90;5.80;;;;;;;23.82;37.68;98993.83;104879;1270;60888;-73
2022/05/04 10:48:30;;;;;;;6.50;5.50;;;;;;;23.75;36.65;98990.40;105205;1270;61045;-72
2022/05/04 10:51:02;;;;;;;6.00;5.50;;;;;;;23.67;37.19;98986.45;105163;1270;73403;-72
2022/05/04 10:53:29;;;;;;;5.70;5.20;;;;;;;23.71;36.98;98984.27;105164;1270;69393;-72
2022/05/04 10:56:03;;;;;;;5.20;4.80;;;;;;;23.76;36.45;98977.86;105146;1270;60530;-73
2022/05/04 10:58:36;;;;;;;7.40;5.40;;;;;;;23.87;36.69;98974.42;105089;1269;60884;-72
2022/05/04 11:01:16;;;;;;;5.50;5.00;;;;;;;24.02;36.61;98976.67;105153;1270;60456;-72
2022/05/04 11:04:04;;;;;;;7.00;6.00;;;;;;;24.07;36.02;98973.73;105113;1270;75356;-73
2022/05/04 11:06:33;;;;;;;6.60;6.10;;;;;;;24.01;35.29;98975.05;105152;1271;69041;-73
2022/05/04 11:09:06;;;;;;;6.10;5.60;;;;;;;24.00;35.35;98971.88;105086;1271;74272;-73
2022/05/04 11:11:33;;;;;;;5.60;5.10;;;;;;;23.93;35.39;98972.23;105124;1271;60389;-74
2022/05/04 11:14:00;;;;;;;8.60;5.60;;;;;;;23.72;35.40;98975.08;105066;1271;60678;-73
2022/05/04 11:16:28;;;;;;;7.10;6.20;;;;;;;23.53;35.53;98980.39;105107;1271;75245;-74
2022/05/04 11:18:58;;;;;;;7.20;6.00;;;;;;;23.26;34.92;98980.81;105082;1271;70495;-72
2022/05/04 11:21:26;;;;;;;7.00;5.90;;;;;;;22.92;34.54;98980.67;105105;1271;72807;-72
2022/05/04 11:23:56;;;;;;;6.90;6.00;;;;;;;22.54;34.35;98983.58;105057;1271;60491;-73
2022/05/04 11:26:33;;;;;;;6.50;5.90;;;;;;;22.25;34.31;98985.33;105119;1271;60371;-73
2022/05/04 11:29:00;;;;;;;6.60;5.70;;;;;;;21.96;34.88;98990.80;105103;1271;73896;-72
2022/05/04 11:31:26;;;;;;;6.90;6.10;;;;;;;21.85;35.25;98991.83;105051;1271;69085;-74
2022/05/04 11:33:53;;;;;;;6.20;5.50;;;;;;;21.80;35.41;98986.50;105047;1271;60386;-72
2022/05/04 11:36:22;;;;;;;7.90;7.20;;;;;;;21.75;35.54;98988.66;105069;1271;60553;-73
2022/05/04 11:38:49;;;;;;;8.10;5.80;;;;;;;21.70;35.68;98989.95;105061;1271;60784;-72
2022/05/04 11:41:17;;;;;;;7.90;6.80;;;;;;;21.64;35.69;98988.46;104948;1271;74457;-73
2022/05/04 11:43:44;;;;;;;6.60;6.00;;;;;;;21.51;36.03;98994.27;105106;1271;69204;-73
2022/05/04 11:46:12;;;;;;;6.80;6.20;;;;;;;21.46;36.08;98993.92;104926;1271;74410;-73
2022/05/04 11:48:43;;;;;;;6.60;6.00;;;;;;;21.45;36.30;98992.61;104991;1271;60588;-73
2022/05/04 11:51:13;;;;;;;6.90;5.90;;;;;;;21.48;36.36;98992.27;104924;1271;62098;-72
2022/05/04 11:53:39;;;;;;;6.40;5.80;;;;;;;21.52;36.42;98994.49;105057;1271;74405;-71
2022/05/04 11:56:08;;;;;;;7.10;5.70;;;;;;;21.45;36.38;98992.38;105224;1271;69038;-72